sensor_id;sensor_type;location;lat;lon;timestamp;pressure;altitude;pressure_sealevel;temperature;humidity
7660;BME280;3872;47.902;8.162;2023-10-09T00:00:33;92795.19;;;10.87;100.00
7660;BME280;3872;47.902;8.162;2023-10-09T00:03:21;92797.31;;;10.36;100.00
7660;BME280;3872;47.902;8.162;2023-10-09T00:05:49;92797.34;;;10.21;100.00
7660;BME280;3872;47.902;8.162;2023-10-09T00:08:18;92796.03;;;10.13;100.00
7660;BME280;3872;47.902;8.162;2023-10-09T00:10:47;92796.94;;;10.53;100.00
7660;BME280;3872;47.902;8.162;2023-10-09T00:13:18;92789.50;;;10.70;100.00
7660;BME280;3872;47.902;8.162;2023-10-09T00:15:46;92796.72;;;10.49;100.00
7660;BME280;3872;47.902;8.162;2023-10-09T00:18:18;92794.69;;;10.26;100.00
7660;BME280;3872;47.902;8.162;2023-10-09T00:20:53;92791.41;;;10.59;100.00
7660;BME280;3872;47.902;8.162;2023-10-09T00:23:20;92792.69;;;9.93;100.00
7660;BME280;3872;47.902;8.162;2023-10-09T00:25:51;92797.34;;;10.26;100.00
7660;BME280;3872;47.902;8.162;2023-10-09T00:28:34;92782.31;;;10.37;100.00
7660;BME280;3872;47.902;8.162;2023-10-09T00:31:04;92786.81;;;10.26;100.00
7660;BME280;3872;47.902;8.162;2023-10-09T00:33:31;92788.81;;;10.49;100.00
7660;BME280;3872;47.902;8.162;2023-10-09T00:36:02;92780.91;;;10.54;100.00
7660;BME280;3872;47.902;8.162;2023-10-09T00:38:34;92790.00;;;10.18;100.00
7660;BME280;3872;47.902;8.162;2023-10-09T00:41:01;92784.28;;;10.60;100.00
7660;BME280;3872;47.902;8.162;2023-10-09T00:43:37;92782.75;;;10.54;100.00
7660;BME280;3872;47.902;8.162;2023-10-09T00:46:09;92776.72;;;10.48;100.00
7660;BME280;3872;47.902;8.162;2023-10-09T00:48:52;92777.66;;;9.98;100.00
7660;BME280;3872;47.902;8.162;2023-10-09T00:51:19;92773.03;;;10.49;100.00
7660;BME280;3872;47.902;8.162;2023-10-09T00:53:49;92772.66;;;10.66;100.00
7660;BME280;3872;47.902;8.162;2023-10-09T00:56:17;92770.94;;;10.51;100.00
7660;BME280;3872;47.902;8.162;2023-10-09T00:58:55;92779.28;;;9.84;100.00
7660;BME280;3872;47.902;8.162;2023-10-09T01:01:26;92773.94;;;10.19;100.00
7660;BME280;3872;47.902;8.162;2023-10-09T01:04:00;92758.13;;;10.25;100.00
7660;BME280;3872;47.902;8.162;2023-10-09T01:06:36;92754.97;;;10.28;100.00
7660;BME280;3872;47.902;8.162;2023-10-09T01:09:09;92757.06;;;10.36;100.00
7660;BME280;3872;47.902;8.162;2023-10-09T01:11:38;92759.19;;;10.24;100.00
7660;BME280;3872;47.902;8.162;2023-10-09T01:14:13;92754.06;;;10.52;100.00
7660;BME280;3872;47.902;8.162;2023-10-09T01:16:42;92745.97;;;10.44;100.00
7660;BME280;3872;47.902;8.162;2023-10-09T01:19:10;92751.78;;;10.36;100.00
7660;BME280;3872;47.902;8.162;2023-10-09T01:21:46;92752.81;;;10.40;100.00
7660;BME280;3872;47.902;8.162;2023-10-09T01:24:15;92748.63;;;10.34;100.00
7660;BME280;3872;47.902;8.162;2023-10-09T01:26:45;92754.75;;;10.09;100.00
7660;BME280;3872;47.902;8.162;2023-10-09T01:29:13;92742.75;;;9.82;100.00
7660;BME280;3872;47.902;8.162;2023-10-09T01:31:45;92744.59;;;9.87;100.00
7660;BME280;3872;47.902;8.162;2023-10-09T01:34:18;92743.19;;;10.05;100.00
7660;BME280;3872;47.902;8.162;2023-10-09T01:36:53;92735.19;;;10.40;100.00
7660;BME280;3872;47.902;8.162;2023-10-09T01:39:23;92731.72;;;10.50;100.00
7660;BME280;3872;47.902;8.162;2023-10-09T01:41:56;92729.97;;;10.35;100.00
7660;BME280;3872;47.902;8.162;2023-10-09T01:44:26;92731.47;;;10.51;100.00
7660;BME280;3872;47.902;8.162;2023-10-09T01:46:55;92726.53;;;10.35;100.00
7660;BME280;3872;47.902;8.162;2023-10-09T01:49:22;92724.94;;;10.39;100.00
7660;BME280;3872;47.902;8.162;2023-10-09T01:51:55;92730.56;;;10.22;100.00
7660;BME280;3872;47.902;8.162;2023-10-09T01:54:26;92724.84;;;9.90;100.00
7660;BME280;3872;47.902;8.162;2023-10-09T01:57:04;92730.81;;;10.10;100.00
7660;BME280;3872;47.902;8.162;2023-10-09T01:59:35;92721.88;;;10.11;100.00
7660;BME280;3872;47.902;8.162;2023-10-09T02:02:04;92726.09;;;10.07;100.00
7660;BME280;3872;47.902;8.162;2023-10-09T02:04:40;92727.44;;;9.95;100.00
7660;BME280;3872;47.902;8.162;2023-10-09T02:07:07;92724.91;;;9.79;100.00
7660;BME280;3872;47.902;8.162;2023-10-09T02:09:36;92726.41;;;9.96;100.00
7660;BME280;3872;47.902;8.162;2023-10-09T02:12:10;92728.56;;;9.73;100.00
7660;BME280;3872;47.902;8.162;2023-10-09T02:14:37;92726.22;;;9.77;100.00
7660;BME280;3872;47.902;8.162;2023-10-09T02:17:07;92725.41;;;9.76;100.00
7660;BME280;3872;47.902;8.162;2023-10-09T02:19:43;92730.59;;;9.97;100.00
7660;BME280;3872;47.902;8.162;2023-10-09T02:22:14;92724.38;;;9.67;100.00
7660;BME280;3872;47.902;8.162;2023-10-09T02:24:43;92730.50;;;9.42;100.00
7660;BME280;3872;47.902;8.162;2023-10-09T02:27:18;92730.19;;;9.54;100.00
7660;BME280;3872;47.902;8.162;2023-10-09T02:30:18;92726.22;;;9.67;100.00
7660;BME280;3872;47.902;8.162;2023-10-09T02:32:53;92723.34;;;9.63;100.00
7660;BME280;3872;47.902;8.162;2023-10-09T02:35:32;92728.94;;;9.01;100.00
7660;BME280;3872;47.902;8.162;2023-10-09T02:38:03;92727.63;;;9.03;100.00
7660;BME280;3872;47.902;8.162;2023-10-09T02:40:33;92721.84;;;9.27;100.00
7660;BME280;3872;47.902;8.162;2023-10-09T02:43:06;92726.31;;;9.16;100.00
7660;BME280;3872;47.902;8.162;2023-10-09T02:45:38;92727.88;;;8.97;100.00
7660;BME280;3872;47.902;8.162;2023-10-09T02:48:16;92715.00;;;9.31;100.00
7660;BME280;3872;47.902;8.162;2023-10-09T02:50:44;92711.03;;;9.38;100.00
7660;BME280;3872;47.902;8.162;2023-10-09T02:53:11;92714.47;;;9.44;100.00
7660;BME280;3872;47.902;8.162;2023-10-09T02:55:44;92708.19;;;9.20;100.00
7660;BME280;3872;47.902;8.162;2023-10-09T02:58:27;92707.84;;;9.72;100.00
7660;BME280;3872;47.902;8.162;2023-10-09T03:00:55;92714.41;;;9.59;100.00
7660;BME280;3872;47.902;8.162;2023-10-09T03:03:21;92704.59;;;9.90;100.00
7660;BME280;3872;47.902;8.162;2023-10-09T03:05:48;92698.56;;;9.90;100.00
7660;BME280;3872;47.902;8.162;2023-10-09T03:08:15;92701.63;;;9.17;100.00
7660;BME280;3872;47.902;8.162;2023-10-09T03:10:44;92702.91;;;9.50;100.00
7660;BME280;3872;47.902;8.162;2023-10-09T03:13:11;92701.28;;;9.59;100.00
7660;BME280;3872;47.902;8.162;2023-10-09T03:15:40;92700.78;;;9.57;100.00
7660;BME280;3872;47.902;8.162;2023-10-09T03:18:09;92695.25;;;9.59;100.00
7660;BME280;3872;47.902;8.162;2023-10-09T03:20:39;92699.44;;;9.65;100.00
7660;BME280;3872;47.902;8.162;2023-10-09T03:23:06;92698.91;;;9.73;100.00
7660;BME280;3872;47.902;8.162;2023-10-09T03:25:35;92695.50;;;9.62;100.00
7660;BME280;3872;47.902;8.162;2023-10-09T03:28:03;92694.78;;;9.36;100.00
7660;BME280;3872;47.902;8.162;2023-10-09T03:30:30;92695.84;;;9.20;100.00
7660;BME280;3872;47.902;8.162;2023-10-09T03:32:57;92696.81;;;9.65;100.00
7660;BME280;3872;47.902;8.162;2023-10-09T03:35:27;92699.13;;;9.76;100.00
7660;BME280;3872;47.902;8.162;2023-10-09T03:37:57;92694.44;;;9.63;100.00
7660;BME280;3872;47.902;8.162;2023-10-09T03:40:26;92686.84;;;9.57;100.00
7660;BME280;3872;47.902;8.162;2023-10-09T03:42:53;92695.00;;;9.50;100.00
7660;BME280;3872;47.902;8.162;2023-10-09T03:45:20;92697.09;;;9.58;100.00
7660;BME280;3872;47.902;8.162;2023-10-09T03:47:54;92690.25;;;9.62;100.00
7660;BME280;3872;47.902;8.162;2023-10-09T03:50:29;92688.94;;;9.60;100.00
7660;BME280;3872;47.902;8.162;2023-10-09T03:53:03;92682.13;;;9.54;100.00
7660;BME280;3872;47.902;8.162;2023-10-09T03:55:34;92683.47;;;9.31;100.00
7660;BME280;3872;47.902;8.162;2023-10-09T03:58:03;92684.56;;;9.15;100.00
7660;BME280;3872;47.902;8.162;2023-10-09T04:00:30;92680.31;;;9.39;100.00
7660;BME280;3872;47.902;8.162;2023-10-09T04:03:06;92683.34;;;9.76;100.00
7660;BME280;3872;47.902;8.162;2023-10-09T04:05:38;92683.19;;;9.48;100.00
7660;BME280;3872;47.902;8.162;2023-10-09T04:08:07;92678.69;;;9.58;100.00
7660;BME280;3872;47.902;8.162;2023-10-09T04:10:39;92673.13;;;9.70;100.00
7660;BME280;3872;47.902;8.162;2023-10-09T04:13:26;92684.56;;;9.30;100.00
7660;BME280;3872;47.902;8.162;2023-10-09T04:15:58;92678.41;;;9.70;100.00
7660;BME280;3872;47.902;8.162;2023-10-09T04:18:34;92676.09;;;9.48;100.00
7660;BME280;3872;47.902;8.162;2023-10-09T04:21:05;92685.50;;;9.64;100.00
7660;BME280;3872;47.902;8.162;2023-10-09T04:23:59;92672.66;;;9.53;100.00
7660;BME280;3872;47.902;8.162;2023-10-09T04:26:35;92680.25;;;9.59;100.00
7660;BME280;3872;47.902;8.162;2023-10-09T04:29:03;92678.97;;;9.47;100.00
7660;BME280;3872;47.902;8.162;2023-10-09T04:31:29;92676.53;;;9.75;100.00
7660;BME280;3872;47.902;8.162;2023-10-09T04:34:03;92679.25;;;9.45;100.00
7660;BME280;3872;47.902;8.162;2023-10-09T04:36:49;92671.69;;;9.13;100.00
7660;BME280;3872;47.902;8.162;2023-10-09T04:39:17;92675.09;;;9.29;100.00
7660;BME280;3872;47.902;8.162;2023-10-09T04:41:58;92674.28;;;9.43;100.00
7660;BME280;3872;47.902;8.162;2023-10-09T04:44:45;92667.59;;;9.76;100.00
7660;BME280;3872;47.902;8.162;2023-10-09T04:47:43;92677.13;;;9.52;100.00
7660;BME280;3872;47.902;8.162;2023-10-09T04:50:23;92666.56;;;9.72;100.00
7660;BME280;3872;47.902;8.162;2023-10-09T04:53:09;92671.88;;;9.52;100.00
7660;BME280;3872;47.902;8.162;2023-10-09T04:55:48;92663.72;;;9.54;100.00
7660;BME280;3872;47.902;8.162;2023-10-09T04:58:23;92664.22;;;9.61;100.00
7660;BME280;3872;47.902;8.162;2023-10-09T05:00:54;92663.31;;;9.91;100.00
7660;BME280;3872;47.902;8.162;2023-10-09T05:03:41;92665.44;;;9.89;100.00
7660;BME280;3872;47.902;8.162;2023-10-09T05:06:13;92672.25;;;9.90;100.00
7660;BME280;3872;47.902;8.162;2023-10-09T05:09:21;92668.78;;;10.04;100.00
7660;BME280;3872;47.902;8.162;2023-10-09T05:11:48;92671.47;;;9.89;100.00
7660;BME280;3872;47.902;8.162;2023-10-09T05:14:25;92671.69;;;10.03;100.00
7660;BME280;3872;47.902;8.162;2023-10-09T05:17:04;92670.41;;;9.95;100.00
7660;BME280;3872;47.902;8.162;2023-10-09T05:19:34;92675.75;;;9.75;100.00
7660;BME280;3872;47.902;8.162;2023-10-09T05:22:21;92673.94;;;9.65;100.00
7660;BME280;3872;47.902;8.162;2023-10-09T05:25:03;92676.28;;;9.72;100.00
7660;BME280;3872;47.902;8.162;2023-10-09T05:27:41;92678.78;;;10.02;100.00
7660;BME280;3872;47.902;8.162;2023-10-09T05:30:16;92683.69;;;9.65;100.00
7660;BME280;3872;47.902;8.162;2023-10-09T05:32:53;92673.56;;;9.92;100.00
7660;BME280;3872;47.902;8.162;2023-10-09T05:35:23;92683.69;;;9.65;100.00
7660;BME280;3872;47.902;8.162;2023-10-09T05:38:08;92673.75;;;10.21;100.00
7660;BME280;3872;47.902;8.162;2023-10-09T05:40:51;92673.06;;;9.90;100.00
7660;BME280;3872;47.902;8.162;2023-10-09T05:43:30;92677.44;;;10.10;100.00
7660;BME280;3872;47.902;8.162;2023-10-09T05:46:14;92676.72;;;9.94;100.00
7660;BME280;3872;47.902;8.162;2023-10-09T05:48:40;92677.00;;;9.88;100.00
7660;BME280;3872;47.902;8.162;2023-10-09T05:51:23;92685.09;;;10.06;100.00
7660;BME280;3872;47.902;8.162;2023-10-09T05:54:08;92685.38;;;9.95;100.00
7660;BME280;3872;47.902;8.162;2023-10-09T05:56:50;92688.16;;;10.29;100.00
7660;BME280;3872;47.902;8.162;2023-10-09T05:59:30;92694.00;;;10.10;100.00
7660;BME280;3872;47.902;8.162;2023-10-09T06:02:15;92691.09;;;10.12;100.00
7660;BME280;3872;47.902;8.162;2023-10-09T06:04:58;92691.88;;;10.23;100.00
7660;BME280;3872;47.902;8.162;2023-10-09T06:07:27;92691.00;;;10.37;100.00
7660;BME280;3872;47.902;8.162;2023-10-09T06:10:14;92698.78;;;10.57;100.00
7660;BME280;3872;47.902;8.162;2023-10-09T06:12:55;92691.69;;;9.99;100.00
7660;BME280;3872;47.902;8.162;2023-10-09T06:15:29;92686.72;;;10.46;100.00
7660;BME280;3872;47.902;8.162;2023-10-09T06:18:16;92697.69;;;10.64;100.00
7660;BME280;3872;47.902;8.162;2023-10-09T06:20:59;92691.94;;;10.56;100.00
7660;BME280;3872;47.902;8.162;2023-10-09T06:23:55;92701.00;;;10.35;100.00
7660;BME280;3872;47.902;8.162;2023-10-09T06:26:42;92689.22;;;10.67;100.00
7660;BME280;3872;47.902;8.162;2023-10-09T06:29:18;92699.00;;;10.61;100.00
7660;BME280;3872;47.902;8.162;2023-10-09T06:32:12;92698.97;;;11.05;100.00
7660;BME280;3872;47.902;8.162;2023-10-09T06:35:06;92698.09;;;11.15;100.00
7660;BME280;3872;47.902;8.162;2023-10-09T06:37:42;92697.09;;;11.63;100.00
7660;BME280;3872;47.902;8.162;2023-10-09T06:40:22;92691.41;;;11.51;100.00
7660;BME280;3872;47.902;8.162;2023-10-09T06:43:03;92696.13;;;12.07;100.00
7660;BME280;3872;47.902;8.162;2023-10-09T06:45:35;92699.53;;;12.50;100.00
7660;BME280;3872;47.902;8.162;2023-10-09T06:48:12;92697.09;;;12.72;100.00
7660;BME280;3872;47.902;8.162;2023-10-09T06:50:56;92695.81;;;12.70;100.00
7660;BME280;3872;47.902;8.162;2023-10-09T06:53:29;92698.66;;;12.73;100.00
7660;BME280;3872;47.902;8.162;2023-10-09T06:56:24;92696.75;;;13.30;100.00
7660;BME280;3872;47.902;8.162;2023-10-09T06:59:12;92710.34;;;13.23;100.00
7660;BME280;3872;47.902;8.162;2023-10-09T07:01:42;92705.81;;;13.43;100.00
7660;BME280;3872;47.902;8.162;2023-10-09T07:04:11;92708.94;;;13.45;100.00
7660;BME280;3872;47.902;8.162;2023-10-09T07:06:44;92716.31;;;13.48;100.00
7660;BME280;3872;47.902;8.162;2023-10-09T07:09:18;92710.25;;;13.61;100.00
7660;BME280;3872;47.902;8.162;2023-10-09T07:11:46;92714.50;;;13.76;100.00
7660;BME280;3872;47.902;8.162;2023-10-09T07:14:35;92715.97;;;14.09;100.00
7660;BME280;3872;47.902;8.162;2023-10-09T07:17:19;92721.66;;;14.57;100.00
7660;BME280;3872;47.902;8.162;2023-10-09T07:19:53;92720.81;;;14.84;100.00
7660;BME280;3872;47.902;8.162;2023-10-09T07:22:38;92723.97;;;14.72;100.00
7660;BME280;3872;47.902;8.162;2023-10-09T07:25:19;92718.75;;;14.81;100.00
7660;BME280;3872;47.902;8.162;2023-10-09T07:28:03;92715.06;;;15.04;100.00
7660;BME280;3872;47.902;8.162;2023-10-09T07:30:43;92715.84;;;15.05;100.00
7660;BME280;3872;47.902;8.162;2023-10-09T07:33:11;92722.06;;;15.67;100.00
7660;BME280;3872;47.902;8.162;2023-10-09T07:35:46;92719.97;;;15.86;100.00
7660;BME280;3872;47.902;8.162;2023-10-09T07:38:24;92716.16;;;15.48;100.00
7660;BME280;3872;47.902;8.162;2023-10-09T07:40:55;92715.47;;;15.87;100.00
7660;BME280;3872;47.902;8.162;2023-10-09T07:43:26;92713.34;;;16.06;100.00
7660;BME280;3872;47.902;8.162;2023-10-09T07:45:54;92711.63;;;16.50;100.00
7660;BME280;3872;47.902;8.162;2023-10-09T07:48:55;92719.63;;;16.58;100.00
7660;BME280;3872;47.902;8.162;2023-10-09T07:51:24;92718.13;;;16.74;97.47
7660;BME280;3872;47.902;8.162;2023-10-09T07:53:56;92714.56;;;16.96;100.00
7660;BME280;3872;47.902;8.162;2023-10-09T07:56:32;92717.81;;;17.28;100.00
7660;BME280;3872;47.902;8.162;2023-10-09T07:59:04;92723.22;;;16.14;100.00
7660;BME280;3872;47.902;8.162;2023-10-09T08:01:37;92719.53;;;17.06;100.00
7660;BME280;3872;47.902;8.162;2023-10-09T08:04:04;92713.44;;;17.40;100.00
7660;BME280;3872;47.902;8.162;2023-10-09T08:06:37;92713.91;;;17.68;100.00
7660;BME280;3872;47.902;8.162;2023-10-09T08:09:05;92713.53;;;17.95;100.00
7660;BME280;3872;47.902;8.162;2023-10-09T08:11:44;92714.63;;;17.94;100.00
7660;BME280;3872;47.902;8.162;2023-10-09T08:14:40;92714.88;;;18.10;100.00
7660;BME280;3872;47.902;8.162;2023-10-09T08:17:08;92714.53;;;18.88;91.42
7660;BME280;3872;47.902;8.162;2023-10-09T08:19:39;92710.94;;;19.46;88.87
7660;BME280;3872;47.902;8.162;2023-10-09T08:22:22;92710.97;;;19.79;84.95
7660;BME280;3872;47.902;8.162;2023-10-09T08:25:07;92713.78;;;19.94;84.43
7660;BME280;3872;47.902;8.162;2023-10-09T08:27:34;92708.00;;;20.05;81.79
7660;BME280;3872;47.902;8.162;2023-10-09T08:30:20;92715.00;;;19.97;82.64
7660;BME280;3872;47.902;8.162;2023-10-09T08:33:06;92718.88;;;20.69;81.22
7660;BME280;3872;47.902;8.162;2023-10-09T08:35:47;92713.19;;;20.95;74.76
7660;BME280;3872;47.902;8.162;2023-10-09T08:38:16;92712.50;;;20.98;72.47
7660;BME280;3872;47.902;8.162;2023-10-09T08:40:49;92717.44;;;20.96;72.15
7660;BME280;3872;47.902;8.162;2023-10-09T08:43:17;92710.06;;;20.93;62.85
7660;BME280;3872;47.902;8.162;2023-10-09T08:45:45;92716.22;;;21.45;66.58
7660;BME280;3872;47.902;8.162;2023-10-09T08:48:12;92712.94;;;21.24;65.33
7660;BME280;3872;47.902;8.162;2023-10-09T08:50:40;92709.84;;;21.50;57.84
7660;BME280;3872;47.902;8.162;2023-10-09T08:53:08;92712.38;;;21.59;47.23
7660;BME280;3872;47.902;8.162;2023-10-09T08:55:37;92707.78;;;21.87;47.06
7660;BME280;3872;47.902;8.162;2023-10-09T08:58:05;92710.19;;;22.20;46.05
7660;BME280;3872;47.902;8.162;2023-10-09T09:00:38;92710.03;;;22.44;44.47
7660;BME280;3872;47.902;8.162;2023-10-09T09:03:08;92701.13;;;22.40;43.50
7660;BME280;3872;47.902;8.162;2023-10-09T09:05:35;92705.78;;;22.12;48.15
7660;BME280;3872;47.902;8.162;2023-10-09T09:08:02;92701.81;;;22.21;44.57
7660;BME280;3872;47.902;8.162;2023-10-09T09:10:29;92699.66;;;23.09;44.34
7660;BME280;3872;47.902;8.162;2023-10-09T09:13:02;92692.97;;;23.19;42.03
7660;BME280;3872;47.902;8.162;2023-10-09T09:15:29;92696.41;;;23.54;43.48
7660;BME280;3872;47.902;8.162;2023-10-09T09:18:03;92691.81;;;23.55;43.01
7660;BME280;3872;47.902;8.162;2023-10-09T09:20:32;92693.28;;;23.91;40.97
7660;BME280;3872;47.902;8.162;2023-10-09T09:23:02;92692.34;;;24.02;39.37
7660;BME280;3872;47.902;8.162;2023-10-09T09:25:40;92693.53;;;24.05;39.25
7660;BME280;3872;47.902;8.162;2023-10-09T09:28:11;92694.03;;;24.30;37.83
7660;BME280;3872;47.902;8.162;2023-10-09T09:30:44;92696.59;;;24.03;38.30
7660;BME280;3872;47.902;8.162;2023-10-09T09:33:19;92701.66;;;24.28;39.67
7660;BME280;3872;47.902;8.162;2023-10-09T09:35:59;92703.00;;;24.18;39.20
7660;BME280;3872;47.902;8.162;2023-10-09T09:38:28;92699.63;;;24.44;39.16
7660;BME280;3872;47.902;8.162;2023-10-09T09:41:08;92704.03;;;24.33;39.40
7660;BME280;3872;47.902;8.162;2023-10-09T09:43:37;92698.88;;;24.43;37.36
7660;BME280;3872;47.902;8.162;2023-10-09T09:46:07;92704.41;;;24.54;37.16
7660;BME280;3872;47.902;8.162;2023-10-09T09:48:39;92694.63;;;23.81;38.14
7660;BME280;3872;47.902;8.162;2023-10-09T09:51:12;92700.03;;;24.69;37.07
7660;BME280;3872;47.902;8.162;2023-10-09T09:53:40;92705.16;;;25.00;36.22
7660;BME280;3872;47.902;8.162;2023-10-09T09:56:07;92700.97;;;24.80;37.19
7660;BME280;3872;47.902;8.162;2023-10-09T09:58:43;92699.28;;;25.21;36.17
7660;BME280;3872;47.902;8.162;2023-10-09T10:01:12;92696.69;;;25.28;34.57
7660;BME280;3872;47.902;8.162;2023-10-09T10:03:50;92684.47;;;25.97;33.94
7660;BME280;3872;47.902;8.162;2023-10-09T10:06:18;92689.16;;;26.04;33.92
7660;BME280;3872;47.902;8.162;2023-10-09T10:08:48;92688.16;;;26.23;33.27
7660;BME280;3872;47.902;8.162;2023-10-09T10:11:41;92695.88;;;24.75;35.34
7660;BME280;3872;47.902;8.162;2023-10-09T10:14:11;92693.09;;;25.47;34.32
7660;BME280;3872;47.902;8.162;2023-10-09T10:17:03;92695.34;;;25.71;33.63
7660;BME280;3872;47.902;8.162;2023-10-09T10:20:04;92695.09;;;25.83;33.89
7660;BME280;3872;47.902;8.162;2023-10-09T10:22:45;92697.59;;;25.39;33.76
7660;BME280;3872;47.902;8.162;2023-10-09T10:25:34;92692.75;;;25.82;33.17
7660;BME280;3872;47.902;8.162;2023-10-09T10:28:16;92704.19;;;25.15;34.25
7660;BME280;3872;47.902;8.162;2023-10-09T10:30:55;92697.66;;;25.72;33.07
7660;BME280;3872;47.902;8.162;2023-10-09T10:33:25;92697.34;;;24.91;34.02
7660;BME280;3872;47.902;8.162;2023-10-09T10:35:53;92699.63;;;25.76;33.81
7660;BME280;3872;47.902;8.162;2023-10-09T10:38:28;92701.13;;;25.73;33.72
7660;BME280;3872;47.902;8.162;2023-10-09T10:41:13;92707.72;;;25.19;34.07
7660;BME280;3872;47.902;8.162;2023-10-09T10:43:42;92697.59;;;25.99;34.14
7660;BME280;3872;47.902;8.162;2023-10-09T10:46:22;92694.91;;;26.02;33.06
7660;BME280;3872;47.902;8.162;2023-10-09T10:49:00;92693.41;;;25.42;34.53
7660;BME280;3872;47.902;8.162;2023-10-09T10:51:40;92697.25;;;26.41;33.40
7660;BME280;3872;47.902;8.162;2023-10-09T10:54:20;92699.13;;;28.15;31.22
7660;BME280;3872;47.902;8.162;2023-10-09T10:57:15;92693.03;;;28.96;29.81
7660;BME280;3872;47.902;8.162;2023-10-09T10:59:54;92696.97;;;27.59;31.72
7660;BME280;3872;47.902;8.162;2023-10-09T11:02:42;92698.19;;;27.07;32.30
7660;BME280;3872;47.902;8.162;2023-10-09T11:05:08;92696.16;;;26.93;31.59
7660;BME280;3872;47.902;8.162;2023-10-09T11:07:57;92697.19;;;26.78;32.68
7660;BME280;3872;47.902;8.162;2023-10-09T11:10:23;92696.78;;;25.35;33.60
7660;BME280;3872;47.902;8.162;2023-10-09T11:12:57;92690.41;;;27.60;31.13
7660;BME280;3872;47.902;8.162;2023-10-09T11:15:39;92696.69;;;27.13;31.88
7660;BME280;3872;47.902;8.162;2023-10-09T11:18:13;92697.97;;;27.33;31.64
7660;BME280;3872;47.902;8.162;2023-10-09T11:20:45;92694.22;;;28.77;30.80
7660;BME280;3872;47.902;8.162;2023-10-09T11:23:22;92690.13;;;27.90;30.72
7660;BME280;3872;47.902;8.162;2023-10-09T11:26:02;92690.66;;;28.31;30.42
7660;BME280;3872;47.902;8.162;2023-10-09T11:28:46;92686.44;;;27.50;31.93
7660;BME280;3872;47.902;8.162;2023-10-09T11:31:22;92677.09;;;29.44;29.33
7660;BME280;3872;47.902;8.162;2023-10-09T11:33:50;92679.63;;;27.63;31.57
7660;BME280;3872;47.902;8.162;2023-10-09T11:36:17;92680.28;;;28.97;30.52
7660;BME280;3872;47.902;8.162;2023-10-09T11:38:47;92675.22;;;28.74;31.05
7660;BME280;3872;47.902;8.162;2023-10-09T11:41:15;92687.97;;;29.41;29.21
7660;BME280;3872;47.902;8.162;2023-10-09T11:43:46;92682.56;;;27.44;32.19
7660;BME280;3872;47.902;8.162;2023-10-09T11:46:17;92678.28;;;26.81;33.21
7660;BME280;3872;47.902;8.162;2023-10-09T11:49:06;92665.41;;;27.95;32.22
7660;BME280;3872;47.902;8.162;2023-10-09T11:51:47;92663.59;;;28.52;31.85
7660;BME280;3872;47.902;8.162;2023-10-09T11:54:34;92657.41;;;29.01;31.28
7660;BME280;3872;47.902;8.162;2023-10-09T11:57:01;92660.19;;;27.47;33.59
7660;BME280;3872;47.902;8.162;2023-10-09T11:59:28;92661.28;;;28.40;32.51
7660;BME280;3872;47.902;8.162;2023-10-09T12:01:59;92660.91;;;26.75;34.11
7660;BME280;3872;47.902;8.162;2023-10-09T12:04:27;92661.03;;;26.93;34.15
7660;BME280;3872;47.902;8.162;2023-10-09T12:06:55;92661.09;;;27.80;33.06
7660;BME280;3872;47.902;8.162;2023-10-09T12:09:31;92652.00;;;28.27;33.00
7660;BME280;3872;47.902;8.162;2023-10-09T12:12:00;92643.88;;;28.34;32.43
7660;BME280;3872;47.902;8.162;2023-10-09T12:14:26;92640.66;;;27.89;33.09
7660;BME280;3872;47.902;8.162;2023-10-09T12:16:59;92638.81;;;28.18;32.87
7660;BME280;3872;47.902;8.162;2023-10-09T12:19:32;92645.22;;;26.44;34.40
7660;BME280;3872;47.902;8.162;2023-10-09T12:21:59;92634.22;;;27.28;33.43
7660;BME280;3872;47.902;8.162;2023-10-09T12:24:27;92629.50;;;27.98;32.58
7660;BME280;3872;47.902;8.162;2023-10-09T12:26:54;92636.91;;;28.43;31.94
7660;BME280;3872;47.902;8.162;2023-10-09T12:29:21;92624.84;;;27.91;33.09
7660;BME280;3872;47.902;8.162;2023-10-09T12:31:49;92624.06;;;27.94;32.56
7660;BME280;3872;47.902;8.162;2023-10-09T12:34:23;92619.91;;;28.61;31.03
7660;BME280;3872;47.902;8.162;2023-10-09T12:36:53;92623.09;;;29.82;28.94
7660;BME280;3872;47.902;8.162;2023-10-09T12:39:20;92624.13;;;27.15;31.47
7660;BME280;3872;47.902;8.162;2023-10-09T12:41:47;92616.00;;;28.16;31.14
7660;BME280;3872;47.902;8.162;2023-10-09T12:44:18;92612.81;;;27.85;30.31
7660;BME280;3872;47.902;8.162;2023-10-09T12:46:45;92611.03;;;27.24;31.29
7660;BME280;3872;47.902;8.162;2023-10-09T12:49:17;92616.00;;;27.15;30.57
7660;BME280;3872;47.902;8.162;2023-10-09T12:51:44;92616.34;;;26.99;31.01
7660;BME280;3872;47.902;8.162;2023-10-09T12:54:12;92614.44;;;26.08;31.36
7660;BME280;3872;47.902;8.162;2023-10-09T12:56:40;92617.50;;;26.47;31.05
7660;BME280;3872;47.902;8.162;2023-10-09T12:59:06;92615.09;;;26.38;32.30
7660;BME280;3872;47.902;8.162;2023-10-09T13:01:40;92613.63;;;27.03;31.00
7660;BME280;3872;47.902;8.162;2023-10-09T13:04:08;92609.81;;;27.11;30.91
7660;BME280;3872;47.902;8.162;2023-10-09T13:06:37;92609.69;;;27.65;30.42
7660;BME280;3872;47.902;8.162;2023-10-09T13:09:09;92615.81;;;26.86;32.40
7660;BME280;3872;47.902;8.162;2023-10-09T13:11:37;92602.75;;;27.72;30.41
7660;BME280;3872;47.902;8.162;2023-10-09T13:14:06;92611.94;;;27.49;31.86
7660;BME280;3872;47.902;8.162;2023-10-09T13:16:37;92609.69;;;27.65;31.40
7660;BME280;3872;47.902;8.162;2023-10-09T13:19:03;92600.22;;;26.55;32.17
7660;BME280;3872;47.902;8.162;2023-10-09T13:21:36;92598.00;;;27.40;32.01
7660;BME280;3872;47.902;8.162;2023-10-09T13:24:04;92605.06;;;26.35;32.75
7660;BME280;3872;47.902;8.162;2023-10-09T13:26:31;92599.94;;;26.74;32.93
7660;BME280;3872;47.902;8.162;2023-10-09T13:29:03;92597.03;;;27.01;33.79
7660;BME280;3872;47.902;8.162;2023-10-09T13:31:34;92595.47;;;26.41;34.69
7660;BME280;3872;47.902;8.162;2023-10-09T13:34:04;92602.06;;;26.99;34.68
7660;BME280;3872;47.902;8.162;2023-10-09T13:36:32;92594.47;;;26.16;34.69
7660;BME280;3872;47.902;8.162;2023-10-09T13:39:02;92591.03;;;27.43;33.35
7660;BME280;3872;47.902;8.162;2023-10-09T13:41:50;92588.22;;;26.52;33.97
7660;BME280;3872;47.902;8.162;2023-10-09T13:44:24;92584.84;;;27.28;32.43
7660;BME280;3872;47.902;8.162;2023-10-09T13:46:53;92580.50;;;27.16;32.86
7660;BME280;3872;47.902;8.162;2023-10-09T13:49:20;92578.91;;;25.99;33.97
7660;BME280;3872;47.902;8.162;2023-10-09T13:51:48;92581.75;;;27.33;34.15
7660;BME280;3872;47.902;8.162;2023-10-09T13:54:16;92577.50;;;27.36;34.23